首页
METAR-TAF:

METAR-TAF

机场 :

Narrandera, 澳大利亚

纬度: 34-42-08S, 经度: 146-30-44E, 海拔: 144米

当前天气观测

该预报发布于1小时和1分钟前的10:20 UTC
风速6节,风向东南
温度 14°C
湿度 100%
气压 1022 hPa
能見度: 6000
散云层高于2400英尺
散云层高于3900英尺
多云层高于6100英尺
阵雨

METAR: YNAR 091020Z AUTO 13006KT 6000 SHRA SCT024 SCT039 BKN061 14/14 Q1022

时间: 21:21 (11:21 UTC)


TAF: 丢失

超过4000个机场的气象观测和天气预报(METAR&TAF报告)。

可查询的气象台以黄色和红色小点在地图上表示。

将鼠标移到小点上方,可查看气象台名称。

然后点击查看天气观测和预报。

如需切换地图:点击带黑十字的绿色按钮放大地图;点击带横线的绿色按钮缩小地图;或者点击绿色箭头查看邻近地区的地图。


METAR-TAF: